Time,TemperatureF,DewpointF,PressureIn,WindDirection,WindDirectionDegrees,WindSpeedMPH,WindSpeedGustMPH,Humidity,HourlyPrecipIn,Conditions,Clouds,dailyrainin,SoftwareType,DateUTC
2013-09-30 00:03:00,72.4,66.6,29.99,NNW,348,17.0,29.0,82,0.00,,,0.00,Weather View 32 v70,2013-09-30 10:03:00,
2013-09-30 00:08:00,72.5,66.3,30.00,North,3,15.0,29.0,81,0.00,,,0.00,Weather View 32 v70,2013-09-30 10:08:00,
2013-09-30 00:13:00,72.7,66.1,30.00,NNW,342,19.0,29.0,80,0.00,,,0.00,Weather View 32 v70,2013-09-30 10:13:00,
2013-09-30 00:18:00,72.9,66.0,30.00,NE,37,13.0,29.0,79,0.00,,,0.00,Weather View 32 v70,2013-09-30 10:18:00,
2013-09-30 00:23:00,72.9,65.2,29.99,NE,37,9.0,29.0,77,0.00,,,0.00,Weather View 32 v70,2013-09-30 10:23:00,
2013-09-30 00:28:00,72.9,65.6,29.99,NW,313,16.0,29.0,78,0.00,,,0.00,Weather View 32 v70,2013-09-30 10:28:00,
2013-09-30 00:33:00,72.7,65.8,30.00,North,357,18.0,29.0,79,0.00,,,0.00,Weather View 32 v70,2013-09-30 10:33:00,
2013-09-30 00:38:00,72.6,65.7,29.98,North,352,18.0,29.0,79,0.00,,,0.00,Weather View 32 v70,2013-09-30 10:38:00,
2013-09-30 00:43:00,72.5,65.6,29.99,NW,324,11.0,29.0,79,0.00,,,0.00,Weather View 32 v70,2013-09-30 10:43:00,
2013-09-30 00:48:00,72.4,65.5,29.99,WNW,303,12.0,29.0,79,0.00,,,0.00,Weather View 32 v70,2013-09-30 10:48:00,
2013-09-30 00:53:00,72.6,65.3,29.99,NNW,339,15.0,26.0,78,0.00,,,0.00,Weather View 32 v70,2013-09-30 10:53:00,
2013-09-30 00:58:00,73.0,65.0,29.99,North,356,12.0,25.0,76,0.00,,,0.00,Weather View 32 v70,2013-09-30 10:58:00,
2013-09-30 01:03:00,73.1,65.1,29.99,NNW,333,16.0,25.0,76,0.00,,,0.00,Weather View 32 v70,2013-09-30 11:03:00,
2013-09-30 01:08:00,73.1,65.1,29.98,NNW,344,20.0,25.0,76,0.00,,,0.00,Weather View 32 v70,2013-09-30 11:08:00,
2013-09-30 01:13:00,73.0,65.3,29.98,NNW,345,21.0,25.0,77,0.00,,,0.00,Weather View 32 v70,2013-09-30 11:13:00,
2013-09-30 01:18:00,72.8,65.5,29.99,North,1,8.0,25.0,78,0.00,,,0.00,Weather View 32 v70,2013-09-30 11:18:00,
2013-09-30 01:23:00,72.7,65.4,29.97,NNW,343,22.0,25.0,78,0.00,,,0.00,Weather View 32 v70,2013-09-30 11:23:00,
2013-09-30 01:28:00,73.1,64.7,29.98,NNW,330,6.0,25.0,75,0.00,,,0.00,Weather View 32 v70,2013-09-30 11:28:00,
2013-09-30 01:34:00,73.7,64.5,29.97,North,354,15.0,26.0,73,0.00,,,0.00,Weather View 32 v70,2013-09-30 11:34:00,
2013-09-30 01:39:00,73.8,64.2,29.98,NNE,18,8.0,26.0,72,0.00,,,0.00,Weather View 32 v70,2013-09-30 11:39:00,
2013-09-30 01:44:00,73.7,64.1,29.98,NNE,14,4.0,26.0,72,0.00,,,0.00,Weather View 32 v70,2013-09-30 11:44:00,
2013-09-30 01:49:00,73.7,64.1,29.97,NNW,338,6.0,26.0,72,0.00,,,0.00,Weather View 32 v70,2013-09-30 11:49:00,
2013-09-30 01:54:00,73.6,64.0,29.97,NNW,333,13.0,26.0,72,0.00,,,0.00,Weather View 32 v70,2013-09-30 11:54:00,
2013-09-30 01:59:00,73.5,64.3,29.97,North,5,5.0,26.0,73,0.00,,,0.00,Weather View 32 v70,2013-09-30 11:59:00,
2013-09-30 02:04:00,73.5,63.9,29.97,North,357,15.0,26.0,72,0.00,,,0.00,Weather View 32 v70,2013-09-30 12:04:00,
2013-09-30 02:09:00,73.7,63.7,29.97,NW,324,9.0,26.0,71,0.00,,,0.00,Weather View 32 v70,2013-09-30 12:09:00,
2013-09-30 02:14:00,74.0,63.6,29.97,NW,309,4.0,26.0,70,0.00,,,0.00,Weather View 32 v70,2013-09-30 12:14:00,
2013-09-30 02:19:00,74.1,63.7,29.97,NW,314,5.0,26.0,70,0.00,,,0.00,Weather View 32 v70,2013-09-30 12:19:00,
2013-09-30 02:24:00,74.2,63.7,29.97,WNW,287,6.0,26.0,70,0.00,,,0.00,Weather View 32 v70,2013-09-30 12:24:00,
2013-09-30 02:29:00,74.1,63.7,29.97,NNW,345,4.0,26.0,70,0.00,,,0.00,Weather View 32 v70,2013-09-30 12:29:00,
2013-09-30 02:34:00,74.0,63.6,29.97,NNE,16,5.0,26.0,70,0.00,,,0.00,Weather View 32 v70,2013-09-30 12:34:00,
2013-09-30 02:39:00,73.9,63.5,29.97,NNW,343,8.0,18.0,70,0.00,,,0.00,Weather View 32 v70,2013-09-30 12:39:00,
2013-09-30 02:44:00,73.8,63.4,29.96,NNW,337,5.0,18.0,70,0.00,,,0.00,Weather View 32 v70,2013-09-30 12:44:00,
2013-09-30 02:49:00,73.9,63.5,29.97,North,354,6.0,18.0,70,0.00,,,0.00,Weather View 32 v70,2013-09-30 12:49:00,
2013-09-30 02:54:00,73.8,63.4,29.96,WNW,299,9.0,18.0,70,0.00,,,0.00,Weather View 32 v70,2013-09-30 12:54:00,
2013-09-30 02:59:00,73.8,63.0,29.96,NW,309,9.0,18.0,69,0.00,,,0.00,Weather View 32 v70,2013-09-30 12:59:00,
2013-09-30 03:04:00,73.9,63.1,29.97,NNW,332,6.0,18.0,69,0.00,,,0.00,Weather View 32 v70,2013-09-30 13:04:00,
2013-09-30 03:10:00,74.0,63.1,29.96,North,351,12.0,13.0,69,0.00,,,0.00,Weather View 32 v70,2013-09-30 13:10:00,
2013-09-30 03:15:00,73.9,63.1,29.97,NNW,346,1.0,13.0,69,0.00,,,0.00,Weather View 32 v70,2013-09-30 13:15:00,
2013-09-30 03:20:00,73.9,62.6,29.97,NNW,328,2.0,13.0,68,0.00,,,0.00,Weather View 32 v70,2013-09-30 13:20:00,
2013-09-30 03:25:00,73.9,62.6,29.97,NNW,334,2.0,13.0,68,0.00,,,0.00,Weather View 32 v70,2013-09-30 13:25:00,
2013-09-30 03:30:00,73.7,62.9,29.96,NE,45,3.0,13.0,69,0.00,,,0.00,Weather View 32 v70,2013-09-30 13:30:00,
2013-09-30 03:35:00,73.5,63.1,29.97,NE,36,1.0,13.0,70,0.00,,,0.00,Weather View 32 v70,2013-09-30 13:35:00,
2013-09-30 03:40:00,72.9,62.9,29.96,SW,224,3.0,13.0,71,0.00,,,0.00,Weather View 32 v70,2013-09-30 13:40:00,
2013-09-30 03:45:00,72.6,63.0,29.96,SW,223,5.0,13.0,72,0.00,,,0.00,Weather View 32 v70,2013-09-30 13:45:00,
2013-09-30 03:50:00,72.5,62.9,29.96,West,270,2.0,13.0,72,0.00,,,0.00,Weather View 32 v70,2013-09-30 13:50:00,
2013-09-30 03:55:00,72.5,62.9,29.97,West,259,6.0,13.0,72,0.00,,,0.00,Weather View 32 v70,2013-09-30 13:55:00,
2013-09-30 04:00:00,72.5,62.9,29.97,West,266,2.0,13.0,72,0.00,,,0.00,Weather View 32 v70,2013-09-30 14:00:00,
2013-09-30 04:05:00,72.7,62.7,29.97,WNW,301,4.0,13.0,71,0.00,,,0.00,Weather View 32 v70,2013-09-30 14:05:00,
2013-09-30 04:10:00,73.0,63.0,29.97,NNW,328,3.0,13.0,71,0.00,,,0.00,Weather View 32 v70,2013-09-30 14:10:00,
2013-09-30 04:15:00,73.2,62.8,29.97,NW,323,8.0,8.0,70,0.00,,,0.00,Weather View 32 v70,2013-09-30 14:15:00,
2013-09-30 04:20:00,73.1,63.1,29.97,NNE,15,5.0,8.0,71,0.00,,,0.00,Weather View 32 v70,2013-09-30 14:20:00,
2013-09-30 04:25:00,73.1,63.1,29.97,NNE,12,1.0,9.0,71,0.00,,,0.00,Weather View 32 v70,2013-09-30 14:25:00,
2013-09-30 04:30:00,73.2,63.2,29.97,North,4,3.0,9.0,71,0.00,,,0.00,Weather View 32 v70,2013-09-30 14:30:00,
2013-09-30 04:35:00,73.4,63.4,29.97,North,351,8.0,9.0,71,0.00,,,0.00,Weather View 32 v70,2013-09-30 14:35:00,
2013-09-30 04:40:00,73.4,63.4,29.98,NNW,341,7.0,11.0,71,0.00,,,0.00,Weather View 32 v70,2013-09-30 14:40:00,
2013-09-30 04:45:00,73.3,63.3,29.98,North,354,0.0,11.0,71,0.00,,,0.00,Weather View 32 v70,2013-09-30 14:45:00,
2013-09-30 04:50:00,73.0,63.0,29.98,North,354,0.0,11.0,71,0.00,,,0.00,Weather View 32 v70,2013-09-30 14:50:00,
2013-09-30 04:55:00,72.8,63.2,29.98,NNW,341,3.0,11.0,72,0.00,,,0.00,Weather View 32 v70,2013-09-30 14:55:00,
2013-09-30 05:00:00,72.6,63.4,29.98,NNW,343,2.0,11.0,73,0.00,,,0.00,Weather View 32 v70,2013-09-30 15:00:00,
2013-09-30 05:05:00,72.7,63.1,29.99,North,8,2.0,11.0,72,0.00,,,0.00,Weather View 32 v70,2013-09-30 15:05:00,
2013-09-30 05:10:00,72.8,63.2,29.98,North,349,3.0,11.0,72,0.00,,,0.00,Weather View 32 v70,2013-09-30 15:10:00,
2013-09-30 05:15:00,73.1,63.5,29.98,NW,326,6.0,12.0,72,0.00,,,0.00,Weather View 32 v70,2013-09-30 15:15:00,
2013-09-30 05:20:00,73.3,63.7,29.98,NW,324,8.0,13.0,72,0.00,,,0.00,Weather View 32 v70,2013-09-30 15:20:00,
2013-09-30 05:25:00,73.2,63.2,29.98,NNW,343,11.0,14.0,71,0.00,,,0.00,Weather View 32 v70,2013-09-30 15:25:00,
2013-09-30 05:30:00,73.3,63.3,29.98,WNW,303,6.0,14.0,71,0.00,,,0.00,Weather View 32 v70,2013-09-30 15:30:00,
2013-09-30 05:35:00,73.6,63.2,29.99,North,353,8.0,14.0,70,0.00,,,0.00,Weather View 32 v70,2013-09-30 15:35:00,
2013-09-30 05:40:00,73.7,63.3,29.99,North,359,7.0,14.0,70,0.00,,,0.00,Weather View 32 v70,2013-09-30 15:40:00,
2013-09-30 05:45:00,73.5,63.5,29.99,NNW,330,7.0,14.0,71,0.00,,,0.00,Weather View 32 v70,2013-09-30 15:45:00,
2013-09-30 05:50:00,73.4,63.8,29.99,North,351,9.0,14.0,72,0.00,,,0.00,Weather View 32 v70,2013-09-30 15:50:00,
2013-09-30 05:55:00,73.3,63.7,29.99,North,353,5.0,14.0,72,0.00,,,0.00,Weather View 32 v70,2013-09-30 15:55:00,
2013-09-30 06:00:00,73.2,63.6,29.99,NW,309,10.0,14.0,72,0.00,,,0.00,Weather View 32 v70,2013-09-30 16:00:00,
2013-09-30 06:05:00,73.2,63.6,29.99,NNW,329,8.0,14.0,72,0.00,,,0.00,Weather View 32 v70,2013-09-30 16:05:00,
2013-09-30 06:10:00,73.1,63.5,30.00,NW,314,7.0,14.0,72,0.00,,,0.00,Weather View 32 v70,2013-09-30 16:10:00,
2013-09-30 06:15:00,73.0,63.4,30.00,NNW,332,2.0,14.0,72,0.00,,,0.00,Weather View 32 v70,2013-09-30 16:15:00,
2013-09-30 06:20:00,72.8,63.2,30.00,NNW,332,5.0,14.0,72,0.00,,,0.00,Weather View 32 v70,2013-09-30 16:20:00,
2013-09-30 06:25:00,72.9,63.3,30.00,WNW,295,5.0,14.0,72,0.00,,,0.00,Weather View 32 v70,2013-09-30 16:25:00,
2013-09-30 06:30:00,73.0,63.0,30.00,WNW,301,9.0,13.0,71,0.00,,,0.00,Weather View 32 v70,2013-09-30 16:30:00,
2013-09-30 06:35:00,73.4,63.0,30.01,NNW,334,6.0,13.0,70,0.00,,,0.00,Weather View 32 v70,2013-09-30 16:35:00,
2013-09-30 06:40:00,73.5,63.1,30.01,North,9,5.0,13.0,70,0.00,,,0.00,Weather View 32 v70,2013-09-30 16:40:00,
2013-09-30 06:45:00,73.2,63.2,30.01,NE,42,0.0,13.0,71,0.00,,,0.00,Weather View 32 v70,2013-09-30 16:45:00,
2013-09-30 06:50:00,72.6,63.0,30.02,NNE,12,3.0,12.0,72,0.00,,,0.00,Weather View 32 v70,2013-09-30 16:50:00,
2013-09-30 06:55:00,72.8,63.2,30.02,North,356,8.0,12.0,72,0.00,,,0.00,Weather View 32 v70,2013-09-30 16:55:00,
2013-09-30 07:00:00,73.2,63.6,30.02,North,350,7.0,13.0,72,0.00,,,0.00,Weather View 32 v70,2013-09-30 17:00:00,
2013-09-30 07:05:00,73.2,63.6,30.02,NNW,344,10.0,13.0,72,0.00,,,0.00,Weather View 32 v70,2013-09-30 17:05:00,
2013-09-30 07:10:00,73.2,63.6,30.02,NNW,345,7.0,14.0,72,0.00,,,0.00,Weather View 32 v70,2013-09-30 17:10:00,
2013-09-30 07:15:00,73.4,63.4,30.01,NW,313,12.0,18.0,71,0.00,,,0.00,Weather View 32 v70,2013-09-30 17:15:00,
2013-09-30 07:20:00,73.6,63.2,30.01,WNW,300,14.0,19.0,70,0.00,,,0.00,Weather View 32 v70,2013-09-30 17:20:00,
2013-09-30 07:25:00,74.3,63.0,30.01,NW,310,12.0,19.0,68,0.00,,,0.00,Weather View 32 v70,2013-09-30 17:25:00,
2013-09-30 07:30:00,74.9,63.2,30.01,NW,307,10.0,19.0,67,0.00,,,0.00,Weather View 32 v70,2013-09-30 17:30:00,
2013-09-30 07:35:00,75.2,63.0,30.01,NW,314,7.0,19.0,66,0.00,,,0.00,Weather View 32 v70,2013-09-30 17:35:00,
2013-09-30 07:40:00,75.3,63.1,30.02,NNW,338,2.0,19.0,66,0.00,,,0.00,Weather View 32 v70,2013-09-30 17:40:00,
2013-09-30 07:45:00,74.2,64.2,30.02,South,172,0.0,19.0,71,0.00,,,0.00,Weather View 32 v70,2013-09-30 17:45:00,
2013-09-30 07:50:00,72.3,63.5,30.02,NW,322,0.0,19.0,74,0.00,,,0.00,Weather View 32 v70,2013-09-30 17:50:00,
2013-09-30 07:55:00,72.3,63.9,30.02,SSE,156,2.0,19.0,75,0.00,,,0.00,Weather View 32 v70,2013-09-30 17:55:00,
2013-09-30 08:00:00,72.7,64.3,30.02,SE,139,0.0,19.0,75,0.00,,,0.00,Weather View 32 v70,2013-09-30 18:00:00,
2013-09-30 08:05:00,73.4,64.6,30.02,NNW,347,13.0,19.0,74,0.00,,,0.00,Weather View 32 v70,2013-09-30 18:05:00,
2013-09-30 08:10:00,74.4,64.7,30.01,NNE,22,15.0,19.0,72,0.00,,,0.00,Weather View 32 v70,2013-09-30 18:10:00,
2013-09-30 08:15:00,74.5,64.8,30.02,NNE,32,15.0,19.0,72,0.00,,,0.00,Weather View 32 v70,2013-09-30 18:15:00,
2013-09-30 08:20:00,74.3,64.7,30.03,North,357,8.0,19.0,72,0.00,,,0.00,Weather View 32 v70,2013-09-30 18:20:00,
2013-09-30 08:25:00,74.8,65.1,30.03,NNE,17,13.0,19.0,72,0.00,,,0.00,Weather View 32 v70,2013-09-30 18:25:00,
2013-09-30 08:30:00,74.9,64.8,30.03,NW,311,9.0,19.0,71,0.00,,,0.00,Weather View 32 v70,2013-09-30 18:30:00,
2013-09-30 08:35:00,75.1,65.0,30.03,NE,45,10.0,19.0,71,0.00,,,0.00,Weather View 32 v70,2013-09-30 18:35:00,
2013-09-30 08:40:00,75.1,64.6,30.03,North,359,12.0,19.0,70,0.00,,,0.00,Weather View 32 v70,2013-09-30 18:40:00,
2013-09-30 08:46:00,75.0,64.1,30.03,North,2,14.0,19.0,69,0.00,,,0.00,Weather View 32 v70,2013-09-30 18:46:00,
2013-09-30 08:51:00,75.5,63.3,30.03,NNW,335,11.0,19.0,66,0.00,,,0.00,Weather View 32 v70,2013-09-30 18:51:00,
2013-09-30 08:57:00,75.8,64.0,30.03,North,360,7.0,19.0,67,0.00,,,0.00,Weather View 32 v70,2013-09-30 18:57:00,
2013-09-30 09:00:00,76.2,64.4,30.03,NNE,18,9.0,19.0,67,0.00,,,0.00,Weather View 32 v70,2013-09-30 19:00:00,
2013-09-30 09:02:00,76.2,65.2,30.03,North,9,7.0,19.0,69,0.00,,,0.00,Weather View 32 v70,2013-09-30 19:02:00,
2013-09-30 09:05:00,76.2,65.7,30.03,NE,36,13.0,19.0,70,0.00,,,0.00,Weather View 32 v70,2013-09-30 19:05:00,
2013-09-30 09:08:00,76.1,65.6,30.02,NNE,12,15.0,19.0,70,0.00,,,0.00,Weather View 32 v70,2013-09-30 19:08:00,
2013-09-30 09:10:00,75.7,65.6,30.02,NNE,14,14.0,19.0,71,0.00,,,0.00,Weather View 32 v70,2013-09-30 19:10:00,
2013-09-30 09:13:00,75.3,66.0,30.02,NE,41,13.0,19.0,73,0.00,,,0.00,Weather View 32 v70,2013-09-30 19:13:00,
2013-09-30 09:20:00,75.4,66.1,30.02,NE,46,17.0,19.0,73,0.00,,,0.00,Weather View 32 v70,2013-09-30 19:20:00,
2013-09-30 09:25:00,75.3,66.4,30.03,North,10,10.0,19.0,74,0.00,,,0.00,Weather View 32 v70,2013-09-30 19:25:00,
2013-09-30 09:31:00,76.0,65.9,30.02,North,2,16.0,23.0,71,0.00,,,0.00,Weather View 32 v70,2013-09-30 19:31:00,
2013-09-30 09:37:00,76.2,66.1,30.02,NNE,15,17.0,23.0,71,0.00,,,0.00,Weather View 32 v70,2013-09-30 19:37:00,
2013-09-30 09:40:00,76.2,66.1,30.03,NNE,22,14.0,23.0,71,0.00,,,0.00,Weather View 32 v70,2013-09-30 19:40:00,
2013-09-30 09:45:00,76.6,66.0,30.02,NNW,342,24.0,24.0,70,0.00,,,0.00,Weather View 32 v70,2013-09-30 19:45:00,
2013-09-30 09:50:00,76.6,65.2,30.02,North,4,18.0,25.0,68,0.00,,,0.00,Weather View 32 v70,2013-09-30 19:50:00,
2013-09-30 09:55:00,76.3,66.2,30.01,NNE,15,20.0,25.0,71,0.00,,,0.00,Weather View 32 v70,2013-09-30 19:55:00,
2013-09-30 09:56:00,76.3,66.2,30.01,North,353,22.0,25.0,71,0.00,,,0.00,Weather View 32 v70,2013-09-30 19:56:00,
2013-09-30 10:00:00,76.2,66.5,30.02,NNE,18,19.0,25.0,72,0.00,,,0.00,Weather View 32 v70,2013-09-30 20:00:00,
2013-09-30 10:02:00,76.2,66.9,30.02,NNW,330,13.0,25.0,73,0.00,,,0.00,Weather View 32 v70,2013-09-30 20:02:00,
2013-09-30 10:05:00,76.1,67.2,30.01,NNE,16,24.0,25.0,74,0.00,,,0.00,Weather View 32 v70,2013-09-30 20:05:00,
2013-09-30 10:07:00,75.7,66.8,30.01,North,6,19.0,25.0,74,0.00,,,0.00,Weather View 32 v70,2013-09-30 20:07:00,
2013-09-30 10:10:00,75.7,66.4,30.02,NNW,340,21.0,25.0,73,0.00,,,0.00,Weather View 32 v70,2013-09-30 20:10:00,
2013-09-30 10:12:00,76.3,67.4,30.01,NNE,13,17.0,25.0,74,0.00,,,0.00,Weather View 32 v70,2013-09-30 20:12:00,
2013-09-30 10:18:00,76.9,67.9,30.02,NNE,24,11.0,25.0,74,0.00,,,0.00,Weather View 32 v70,2013-09-30 20:18:00,
2013-09-30 10:25:00,77.0,67.2,30.02,North,10,16.0,25.0,72,0.00,,,0.00,Weather View 32 v70,2013-09-30 20:25:00,
2013-09-30 10:31:00,77.2,67.0,30.02,NNE,33,17.0,25.0,71,0.00,,,0.00,Weather View 32 v70,2013-09-30 20:31:00,
2013-09-30 10:36:00,77.9,66.4,30.02,North,358,16.0,25.0,68,0.00,,,0.00,Weather View 32 v70,2013-09-30 20:36:00,
2013-09-30 10:45:00,77.9,66.4,30.01,NNE,16,21.0,25.0,68,0.00,,,0.00,Weather View 32 v70,2013-09-30 20:45:00,
2013-09-30 10:56:00,77.1,66.9,30.02,NNE,27,19.0,25.0,71,0.00,,,0.00,Weather View 32 v70,2013-09-30 20:56:00,
2013-09-30 11:26:00,77.5,66.9,29.99,NNE,17,24.0,31.0,70,0.00,,,0.00,Weather View 32 v70,2013-09-30 21:26:00,
2013-09-30 11:32:00,77.6,67.8,30.00,NW,320,27.0,31.0,72,0.00,,,0.00,Weather View 32 v70,2013-09-30 21:32:00,
2013-09-30 11:38:00,77.5,68.1,30.00,North,355,15.0,31.0,73,0.00,,,0.00,Weather View 32 v70,2013-09-30 21:38:00,
2013-09-30 11:43:00,78.0,67.8,30.00,North,360,19.0,31.0,71,0.00,,,0.00,Weather View 32 v70,2013-09-30 21:43:00,
2013-09-30 11:50:00,77.1,67.7,29.99,NNE,32,19.0,31.0,73,0.00,,,0.00,Weather View 32 v70,2013-09-30 21:50:00,
2013-09-30 11:56:00,77.1,68.1,29.99,North,351,19.0,31.0,74,0.00,,,0.00,Weather View 32 v70,2013-09-30 21:56:00,
2013-09-30 12:01:00,77.3,67.9,29.99,NNE,26,19.0,31.0,73,0.00,,,0.00,Weather View 32 v70,2013-09-30 22:01:00,
2013-09-30 12:07:00,77.7,68.3,29.99,NE,41,14.0,31.0,73,0.00,,,0.00,Weather View 32 v70,2013-09-30 22:07:00,
2013-09-30 12:12:00,77.9,67.3,29.98,NNE,14,17.0,31.0,70,0.00,,,0.00,Weather View 32 v70,2013-09-30 22:12:00,
2013-09-30 12:17:00,78.4,67.3,29.99,NNE,31,10.0,31.0,69,0.00,,,0.00,Weather View 32 v70,2013-09-30 22:17:00,
2013-09-30 12:22:00,78.2,66.3,29.99,North,357,11.0,31.0,67,0.00,,,0.00,Weather View 32 v70,2013-09-30 22:22:00,
2013-09-30 12:30:00,78.2,67.2,29.99,NW,314,15.0,27.0,69,0.00,,,0.00,Weather View 32 v70,2013-09-30 22:30:00,
2013-09-30 12:37:00,77.7,67.5,29.98,WNW,303,9.0,27.0,71,0.00,,,0.00,Weather View 32 v70,2013-09-30 22:37:00,
2013-09-30 12:40:00,77.6,67.0,29.98,NW,326,10.0,27.0,70,0.00,,,0.00,Weather View 32 v70,2013-09-30 22:40:00,
2013-09-30 12:45:00,77.3,67.1,29.98,NW,313,20.0,27.0,71,0.00,,,0.00,Weather View 32 v70,2013-09-30 22:45:00,
2013-09-30 12:50:00,76.5,67.6,29.98,NW,313,23.0,35.0,74,0.00,,,0.00,Weather View 32 v70,2013-09-30 22:50:00,
2013-09-30 12:57:00,76.2,67.7,29.97,NW,310,24.0,35.0,75,0.00,,,0.00,Weather View 32 v70,2013-09-30 22:57:00,
2013-09-30 13:10:00,76.3,67.8,29.98,NW,311,13.0,35.0,75,0.00,,,0.00,Weather View 32 v70,2013-09-30 23:10:00,
2013-09-30 13:27:00,77.0,67.6,29.97,NW,318,15.0,35.0,73,0.00,,,0.00,Weather View 32 v70,2013-09-30 23:27:00,
2013-09-30 13:43:00,76.6,68.0,29.97,NW,321,14.0,35.0,75,0.00,,,0.00,Weather View 32 v70,2013-09-30 23:43:00,
2013-09-30 13:45:00,76.7,68.1,29.97,NNW,343,15.0,35.0,75,0.00,,,0.00,Weather View 32 v70,2013-09-30 23:45:00,
2013-09-30 13:55:00,76.7,68.1,29.97,NNW,332,14.0,30.0,75,0.00,,,0.00,Weather View 32 v70,2013-09-30 23:55:00,
2013-09-30 14:00:00,76.5,68.0,29.97,NNW,337,18.0,29.0,75,0.00,,,0.00,Weather View 32 v70,2013-10-01 00:00:00,
2013-09-30 14:05:00,76.7,68.1,29.97,NE,36,16.0,29.0,75,0.00,,,0.00,Weather View 32 v70,2013-10-01 00:05:00,
2013-09-30 14:10:00,76.6,68.0,29.97,NW,324,12.0,29.0,75,0.00,,,0.00,Weather View 32 v70,2013-10-01 00:10:00,
2013-09-30 14:11:00,76.6,68.0,29.97,NW,320,15.0,29.0,75,0.00,,,0.00,Weather View 32 v70,2013-10-01 00:11:00,
2013-09-30 14:15:00,76.2,68.0,29.96,North,359,15.0,29.0,76,0.00,,,0.00,Weather View 32 v70,2013-10-01 00:15:00,
2013-09-30 14:16:00,76.1,68.0,29.96,NNW,346,12.0,29.0,76,0.00,,,0.00,Weather View 32 v70,2013-10-01 00:16:00,
2013-09-30 14:21:00,76.2,68.0,29.96,NNW,335,16.0,29.0,76,0.00,,,0.00,Weather View 32 v70,2013-10-01 00:21:00,
2013-09-30 14:27:00,75.9,67.8,29.96,North,351,12.0,29.0,76,0.00,,,0.00,Weather View 32 v70,2013-10-01 00:27:00,
2013-09-30 14:35:00,76.0,68.2,29.95,NW,324,11.0,29.0,77,0.00,,,0.00,Weather View 32 v70,2013-10-01 00:35:00,
2013-09-30 14:40:00,76.2,68.4,29.96,NNW,346,13.0,29.0,77,0.00,,,0.00,Weather View 32 v70,2013-10-01 00:40:00,
2013-09-30 14:45:00,76.1,68.0,29.96,NNW,340,19.0,29.0,76,0.00,,,0.00,Weather View 32 v70,2013-10-01 00:45:00,
2013-09-30 14:55:00,75.8,67.7,29.96,NNW,331,19.0,29.0,76,0.00,,,0.00,Weather View 32 v70,2013-10-01 00:55:00,
2013-09-30 15:00:00,76.1,67.6,29.94,NNE,12,19.0,26.0,75,0.00,,,0.00,Weather View 32 v70,2013-10-01 01:00:00,
2013-09-30 15:05:00,75.8,67.3,29.95,North,359,17.0,29.0,75,0.00,,,0.00,Weather View 32 v70,2013-10-01 01:05:00,
2013-09-30 15:10:00,76.1,67.2,29.96,NNW,337,14.0,29.0,74,0.00,,,0.00,Weather View 32 v70,2013-10-01 01:10:00,
2013-09-30 15:15:00,76.2,67.7,29.95,North,359,16.0,29.0,75,0.00,,,0.00,Weather View 32 v70,2013-10-01 01:15:00,
2013-09-30 15:20:00,75.8,67.7,29.95,NNW,334,15.0,29.0,76,0.00,,,0.00,Weather View 32 v70,2013-10-01 01:20:00,
2013-09-30 15:25:00,75.5,67.8,29.96,NW,318,14.0,29.0,77,0.00,,,0.00,Weather View 32 v70,2013-10-01 01:25:00,
2013-09-30 15:30:00,75.5,67.8,29.96,North,351,15.0,29.0,77,0.00,,,0.00,Weather View 32 v70,2013-10-01 01:30:00,
2013-09-30 15:35:00,75.5,67.8,29.96,NNW,338,17.0,29.0,77,0.00,,,0.00,Weather View 32 v70,2013-10-01 01:35:00,
2013-09-30 15:40:00,75.5,67.8,29.96,North,349,11.0,29.0,77,0.00,,,0.00,Weather View 32 v70,2013-10-01 01:40:00,
2013-09-30 15:45:00,75.5,67.8,29.95,NNE,16,10.0,29.0,77,0.00,,,0.00,Weather View 32 v70,2013-10-01 01:45:00,
2013-09-30 15:50:00,75.5,67.8,29.96,NE,37,7.0,29.0,77,0.00,,,0.00,Weather View 32 v70,2013-10-01 01:50:00,
2013-09-30 15:55:00,75.5,67.4,29.95,North,353,17.0,29.0,76,0.00,,,0.00,Weather View 32 v70,2013-10-01 01:55:00,
2013-09-30 16:00:00,75.3,67.2,29.95,NNW,344,16.0,29.0,76,0.00,,,0.00,Weather View 32 v70,2013-10-01 02:00:00,
2013-09-30 16:05:00,75.3,67.2,29.95,NNE,18,12.0,24.0,76,0.00,,,0.00,Weather View 32 v70,2013-10-01 02:05:00,
2013-09-30 16:10:00,75.3,67.2,29.96,North,2,13.0,24.0,76,0.00,,,0.00,Weather View 32 v70,2013-10-01 02:10:00,
2013-09-30 16:15:00,75.3,67.2,29.96,NNW,333,17.0,24.0,76,0.00,,,0.00,Weather View 32 v70,2013-10-01 02:15:00,
2013-09-30 16:20:00,75.1,67.0,29.96,NNW,336,17.0,24.0,76,0.00,,,0.00,Weather View 32 v70,2013-10-01 02:20:00,
2013-09-30 16:25:00,75.1,66.6,29.96,North,351,20.0,24.0,75,0.00,,,0.00,Weather View 32 v70,2013-10-01 02:25:00,
2013-09-30 16:30:00,74.9,67.2,29.97,NNW,345,17.0,25.0,77,0.00,,,0.00,Weather View 32 v70,2013-10-01 02:30:00,
2013-09-30 16:35:00,74.7,67.4,29.96,NNE,14,16.0,25.0,78,0.00,,,0.00,Weather View 32 v70,2013-10-01 02:35:00,
2013-09-30 16:40:00,74.5,67.5,29.96,North,356,12.0,25.0,79,0.00,,,0.00,Weather View 32 v70,2013-10-01 02:40:00,
2013-09-30 16:45:00,74.5,67.5,29.96,NNW,339,12.0,25.0,79,0.00,,,0.00,Weather View 32 v70,2013-10-01 02:45:00,
2013-09-30 16:50:00,74.6,67.3,29.97,North,8,16.0,25.0,78,0.00,,,0.00,Weather View 32 v70,2013-10-01 02:50:00,
2013-09-30 16:55:00,74.7,67.4,29.96,NNE,25,13.0,25.0,78,0.00,,,0.00,Weather View 32 v70,2013-10-01 02:55:00,
2013-09-30 17:00:00,74.8,67.1,29.96,North,353,11.0,25.0,77,0.00,,,0.00,Weather View 32 v70,2013-10-01 03:00:00,
2013-09-30 17:05:00,75.0,66.9,29.97,NW,325,17.0,25.0,76,0.00,,,0.00,Weather View 32 v70,2013-10-01 03:05:00,
2013-09-30 17:10:00,75.1,67.0,29.96,NNE,12,17.0,25.0,76,0.00,,,0.00,Weather View 32 v70,2013-10-01 03:10:00,
2013-09-30 17:15:00,74.9,66.8,29.95,North,355,19.0,29.0,76,0.00,,,0.00,Weather View 32 v70,2013-10-01 03:15:00,
2013-09-30 17:20:00,74.9,66.4,29.97,North,4,9.0,29.0,75,0.00,,,0.00,Weather View 32 v70,2013-10-01 03:20:00,
2013-09-30 17:25:00,75.1,66.2,29.97,North,358,11.0,29.0,74,0.00,,,0.00,Weather View 32 v70,2013-10-01 03:25:00,
2013-09-30 17:30:00,75.0,66.1,29.96,North,7,12.0,29.0,74,0.00,,,0.00,Weather View 32 v70,2013-10-01 03:30:00,
2013-09-30 17:35:00,75.0,66.1,29.97,North,360,9.0,29.0,74,0.00,,,0.00,Weather View 32 v70,2013-10-01 03:35:00,
2013-09-30 17:40:00,75.1,66.2,29.97,NNW,346,14.0,29.0,74,0.00,,,0.00,Weather View 32 v70,2013-10-01 03:40:00,
2013-09-30 17:45:00,74.7,66.6,29.97,North,353,15.0,29.0,76,0.00,,,0.00,Weather View 32 v70,2013-10-01 03:45:00,
2013-09-30 17:50:00,74.4,66.7,29.97,North,8,14.0,29.0,77,0.00,,,0.00,Weather View 32 v70,2013-10-01 03:50:00,
2013-09-30 17:55:00,74.5,66.4,29.98,NNW,339,12.0,29.0,76,0.00,,,0.00,Weather View 32 v70,2013-10-01 03:55:00,
2013-09-30 18:00:00,74.8,65.9,29.97,NNW,341,15.0,29.0,74,0.00,,,0.00,Weather View 32 v70,2013-10-01 04:00:00,
2013-09-30 18:01:00,74.9,66.0,29.98,NW,322,11.0,29.0,74,0.00,,,0.00,Weather View 32 v70,2013-10-01 04:01:00,
2013-09-30 18:02:00,74.9,66.0,29.98,West,273,8.0,29.0,74,0.00,,,0.00,Weather View 32 v70,2013-10-01 04:02:00,
2013-09-30 18:04:00,75.0,66.1,29.98,North,5,11.0,29.0,74,0.00,,,0.00,Weather View 32 v70,2013-10-01 04:04:00,
2013-09-30 18:09:00,75.0,66.1,29.98,NNE,31,2.0,29.0,74,0.00,,,0.00,Weather View 32 v70,2013-10-01 04:09:00,
2013-09-30 18:14:00,75.1,65.8,29.98,NW,304,7.0,29.0,73,0.00,,,0.00,Weather View 32 v70,2013-10-01 04:14:00,
2013-09-30 18:19:00,75.2,65.5,29.98,NNE,13,7.0,26.0,72,0.00,,,0.00,Weather View 32 v70,2013-10-01 04:19:00,
2013-09-30 18:24:00,75.3,65.2,29.99,NW,324,9.0,26.0,71,0.00,,,0.00,Weather View 32 v70,2013-10-01 04:24:00,
2013-09-30 18:29:00,75.8,65.3,29.99,WNW,282,5.0,26.0,70,0.00,,,0.00,Weather View 32 v70,2013-10-01 04:29:00,
2013-09-30 18:34:00,75.8,65.3,29.99,North,2,4.0,26.0,70,0.00,,,0.00,Weather View 32 v70,2013-10-01 04:34:00,
2013-09-30 18:39:00,75.8,65.3,29.99,NW,310,8.0,26.0,70,0.00,,,0.00,Weather View 32 v70,2013-10-01 04:39:00,
2013-09-30 18:44:00,75.8,64.9,29.99,SW,233,4.0,26.0,69,0.00,,,0.00,Weather View 32 v70,2013-10-01 04:44:00,
2013-09-30 18:49:00,75.8,64.9,29.99,SSW,197,2.0,20.0,69,0.00,,,0.00,Weather View 32 v70,2013-10-01 04:49:00,
2013-09-30 18:54:00,75.8,64.4,29.99,SSW,199,4.0,18.0,68,0.00,,,0.00,Weather View 32 v70,2013-10-01 04:54:00,
2013-09-30 18:59:00,76.1,65.6,30.00,SSW,196,1.0,18.0,70,0.00,,,0.00,Weather View 32 v70,2013-10-01 04:59:00,
2013-09-30 19:04:00,76.1,65.2,30.00,SW,228,3.0,16.0,69,0.00,,,0.00,Weather View 32 v70,2013-10-01 05:04:00,
2013-09-30 19:09:00,76.2,65.7,30.00,SW,216,5.0,16.0,70,0.00,,,0.00,Weather View 32 v70,2013-10-01 05:09:00,
2013-09-30 19:14:00,76.2,64.8,30.00,WSW,253,3.0,16.0,68,0.00,,,0.00,Weather View 32 v70,2013-10-01 05:14:00,
2013-09-30 19:19:00,76.0,64.6,30.00,NW,313,3.0,16.0,68,0.00,,,0.00,Weather View 32 v70,2013-10-01 05:19:00,
2013-09-30 19:24:00,75.8,64.4,30.01,North,349,2.0,13.0,68,0.00,,,0.00,Weather View 32 v70,2013-10-01 05:24:00,
2013-09-30 19:29:00,75.7,65.2,30.01,North,349,0.0,10.0,70,0.00,,,0.00,Weather View 32 v70,2013-10-01 05:29:00,
2013-09-30 19:34:00,75.6,65.1,30.01,North,349,0.0,10.0,70,0.00,,,0.00,Weather View 32 v70,2013-10-01 05:34:00,
2013-09-30 19:39:00,75.3,64.8,30.01,WNW,282,2.0,8.0,70,0.00,,,0.00,Weather View 32 v70,2013-10-01 05:39:00,
2013-09-30 19:44:00,75.2,65.1,30.01,West,260,1.0,7.0,71,0.00,,,0.00,Weather View 32 v70,2013-10-01 05:44:00,
2013-09-30 19:49:00,75.0,64.9,30.02,WNW,303,4.0,7.0,71,0.00,,,0.00,Weather View 32 v70,2013-10-01 05:49:00,
2013-09-30 19:54:00,74.8,65.1,30.02,WNW,289,3.0,7.0,72,0.00,,,0.00,Weather View 32 v70,2013-10-01 05:54:00,
2013-09-30 19:59:00,74.8,65.1,30.02,NW,322,3.0,7.0,72,0.00,,,0.00,Weather View 32 v70,2013-10-01 05:59:00,
2013-09-30 20:05:00,74.8,65.5,30.02,WNW,283,5.0,7.0,73,0.00,,,0.00,Weather View 32 v70,2013-10-01 06:05:00,
2013-09-30 20:10:00,74.7,66.2,30.02,WSW,258,1.0,6.0,75,0.00,,,0.00,Weather View 32 v70,2013-10-01 06:10:00,
2013-09-30 20:15:00,74.5,66.0,30.02,West,266,3.0,6.0,75,0.00,,,0.00,Weather View 32 v70,2013-10-01 06:15:00,
2013-09-30 20:20:00,74.5,66.4,30.02,West,278,3.0,6.0,76,0.00,,,0.00,Weather View 32 v70,2013-10-01 06:20:00,
2013-09-30 20:25:00,74.6,66.5,30.02,WSW,253,4.0,6.0,76,0.00,,,0.00,Weather View 32 v70,2013-10-01 06:25:00,
2013-09-30 20:30:00,74.6,66.5,30.02,North,0,3.0,6.0,76,0.00,,,0.00,Weather View 32 v70,2013-10-01 06:30:00,
2013-09-30 20:35:00,74.7,67.0,30.03,West,260,1.0,6.0,77,0.00,,,0.00,Weather View 32 v70,2013-10-01 06:35:00,
2013-09-30 20:40:00,74.7,66.6,30.03,West,260,0.0,6.0,76,0.00,,,0.00,Weather View 32 v70,2013-10-01 06:40:00,
2013-09-30 20:45:00,74.7,66.6,30.03,West,260,0.0,6.0,76,0.00,,,0.00,Weather View 32 v70,2013-10-01 06:45:00,
2013-09-30 20:50:00,74.5,66.4,30.03,NW,305,5.0,7.0,76,0.00,,,0.00,Weather View 32 v70,2013-10-01 06:50:00,
2013-09-30 20:55:00,74.3,66.2,30.04,NW,316,4.0,7.0,76,0.00,,,0.00,Weather View 32 v70,2013-10-01 06:55:00,
2013-09-30 21:00:00,74.8,65.9,30.03,NNW,334,4.0,8.0,74,0.00,,,0.00,Weather View 32 v70,2013-10-01 07:00:00,
2013-09-30 21:05:00,75.0,66.1,30.04,NNE,33,11.0,11.0,74,0.00,,,0.00,Weather View 32 v70,2013-10-01 07:05:00,
2013-09-30 21:10:00,75.2,65.9,30.04,North,8,8.0,13.0,73,0.00,,,0.00,Weather View 32 v70,2013-10-01 07:10:00,
2013-09-30 21:15:00,75.6,65.9,30.04,NW,324,8.0,13.0,72,0.00,,,0.00,Weather View 32 v70,2013-10-01 07:15:00,
2013-09-30 21:20:00,75.8,65.7,30.04,NE,37,8.0,15.0,71,0.00,,,0.00,Weather View 32 v70,2013-10-01 07:20:00,
2013-09-30 21:25:00,75.6,65.5,30.04,NNW,336,12.0,17.0,71,0.00,,,0.00,Weather View 32 v70,2013-10-01 07:25:00,
2013-09-30 21:30:00,75.3,65.6,30.04,NNW,342,18.0,18.0,72,0.00,,,0.00,Weather View 32 v70,2013-10-01 07:30:00,
2013-09-30 21:35:00,75.2,65.5,30.04,NNW,333,4.0,20.0,72,0.00,,,0.00,Weather View 32 v70,2013-10-01 07:35:00,
2013-09-30 21:40:00,75.2,65.5,30.04,North,358,8.0,20.0,72,0.00,,,0.00,Weather View 32 v70,2013-10-01 07:40:00,
2013-09-30 21:45:00,75.3,65.2,30.04,NNW,336,9.0,20.0,71,0.00,,,0.00,Weather View 32 v70,2013-10-01 07:45:00,
2013-09-30 21:50:00,75.4,64.9,30.04,NNW,343,10.0,21.0,70,0.00,,,0.00,Weather View 32 v70,2013-10-01 07:50:00,
2013-09-30 21:55:00,75.6,65.5,30.03,NNW,327,23.0,27.0,71,0.00,,,0.00,Weather View 32 v70,2013-10-01 07:55:00,
2013-09-30 22:00:00,75.5,65.4,30.03,NNW,332,23.0,27.0,71,0.00,,,0.00,Weather View 32 v70,2013-10-01 08:00:00,
2013-09-30 22:05:00,75.0,65.3,30.03,North,10,14.0,33.0,72,0.00,,,0.00,Weather View 32 v70,2013-10-01 08:05:00,
2013-09-30 22:10:00,74.8,65.1,30.03,North,4,12.0,33.0,72,0.00,,,0.00,Weather View 32 v70,2013-10-01 08:10:00,
2013-09-30 22:15:00,74.8,65.5,30.03,NNE,12,8.0,33.0,73,0.00,,,0.00,Weather View 32 v70,2013-10-01 08:15:00,
2013-09-30 22:21:00,74.7,65.4,30.02,NE,35,14.0,33.0,73,0.00,,,0.00,Weather View 32 v70,2013-10-01 08:21:00,
2013-09-30 22:26:00,75.0,64.9,30.02,NNE,32,12.0,33.0,71,0.00,,,0.00,Weather View 32 v70,2013-10-01 08:26:00,
2013-09-30 22:31:00,75.0,65.3,30.03,North,355,11.0,33.0,72,0.00,,,0.00,Weather View 32 v70,2013-10-01 08:31:00,
2013-09-30 22:36:00,75.1,65.0,30.01,NW,316,20.0,33.0,71,0.00,,,0.00,Weather View 32 v70,2013-10-01 08:36:00,
2013-09-30 22:41:00,75.5,65.0,30.03,NNW,330,10.0,33.0,70,0.00,,,0.00,Weather View 32 v70,2013-10-01 08:41:00,
2013-09-30 22:46:00,75.2,65.5,30.03,NNE,27,11.0,33.0,72,0.00,,,0.00,Weather View 32 v70,2013-10-01 08:46:00,
2013-09-30 22:51:00,75.2,65.5,30.03,NNW,334,17.0,33.0,72,0.00,,,0.00,Weather View 32 v70,2013-10-01 08:51:00,
2013-09-30 22:56:00,74.8,65.9,30.03,NW,313,13.0,33.0,74,0.00,,,0.00,Weather View 32 v70,2013-10-01 08:56:00,
2013-09-30 23:01:00,74.8,65.9,30.02,NNW,337,14.0,33.0,74,0.00,,,0.00,Weather View 32 v70,2013-10-01 09:01:00,
2013-09-30 23:06:00,74.8,65.9,30.02,NNW,337,16.0,29.0,74,0.00,,,0.00,Weather View 32 v70,2013-10-01 09:06:00,
2013-09-30 23:11:00,74.8,65.9,30.02,North,8,12.0,29.0,74,0.00,,,0.00,Weather View 32 v70,2013-10-01 09:11:00,
2013-09-30 23:16:00,74.6,66.1,30.02,North,349,12.0,29.0,75,0.00,,,0.00,Weather View 32 v70,2013-10-01 09:16:00,
2013-09-30 23:21:00,74.5,66.0,30.01,NNE,31,16.0,29.0,75,0.00,,,0.00,Weather View 32 v70,2013-10-01 09:21:00,
2013-09-30 23:26:00,74.3,66.2,30.02,North,355,11.0,29.0,76,0.00,,,0.00,Weather View 32 v70,2013-10-01 09:26:00,
2013-09-30 23:31:00,74.2,66.1,30.02,NW,318,19.0,29.0,76,0.00,,,0.00,Weather View 32 v70,2013-10-01 09:31:00,
2013-09-30 23:36:00,74.6,66.1,30.01,NNW,329,9.0,29.0,75,0.00,,,0.00,Weather View 32 v70,2013-10-01 09:36:00,
2013-09-30 23:41:00,74.9,65.6,30.00,North,349,23.0,29.0,73,0.00,,,0.00,Weather View 32 v70,2013-10-01 09:41:00,
2013-09-30 23:46:00,74.9,66.0,30.01,North,6,10.0,29.0,74,0.00,,,0.00,Weather View 32 v70,2013-10-01 09:46:00,
2013-09-30 23:52:00,74.5,66.0,30.02,North,350,10.0,29.0,75,0.00,,,0.00,Weather View 32 v70,2013-10-01 09:52:00,
2013-09-30 23:57:00,74.4,65.9,30.02,NNE,20,9.0,26.0,75,0.00,,,0.00,Weather View 32 v70,2013-10-01 09:57:00,